Time;durP1;ratioP1;P1;durP2;ratioP2;P2;SDS_P1;SDS_P2;PMS_P1;PMS_P2;Temp;Humidity;BMP_temperature;BMP_pressure;BME280_temperature;BME280_humidity;BME280_pressure;Samples;Min_cycle;Max_cycle;Signal;HPM_P1;HPM_P2
2020/12/05 00:02:57;;;;;;;22.03;14.30;;;2.10;99.90;;;;;;10370516;28;20382;-77
2020/12/05 00:08:19;;;;;;;23.93;15.67;;;2.20;99.90;;;;;;10368926;28;20344;-77
2020/12/05 00:13:41;;;;;;;22.30;15.30;;;2.30;99.90;;;;;;10370543;28;20672;-77
2020/12/05 00:19:02;;;;;;;24.60;15.23;;;2.30;99.90;;;;;;10392901;28;20296;-78
2020/12/05 00:24:25;;;;;;;25.03;15.17;;;2.40;99.90;;;;;;10369963;28;20303;-77
2020/12/05 00:29:47;;;;;;;26.00;16.53;;;2.40;99.90;;;;;;10370489;28;20225;-78
2020/12/05 00:35:09;;;;;;;27.03;16.97;;;2.40;99.90;;;;;;10353859;28;20283;-77
2020/12/05 00:40:32;;;;;;;23.93;15.73;;;2.20;99.90;;;;;;10330181;28;20685;-77
2020/12/05 00:45:53;;;;;;;25.30;16.87;;;2.10;99.90;;;;;;10329009;28;20294;-78
2020/12/05 00:51:14;;;;;;;27.10;17.00;;;2.20;99.90;;;;;;10340529;28;20695;-78
2020/12/05 00:56:37;;;;;;;28.87;17.67;;;2.30;99.90;;;;;;10369224;28;20271;-78
2020/12/05 01:01:58;;;;;;;24.10;15.90;;;2.40;99.90;;;;;;10370681;28;20317;-77
2020/12/05 01:07:25;;;;;;;25.53;16.43;;;2.30;99.90;;;;;;10369779;28;20702;-78
2020/12/05 01:12:47;;;;;;;26.27;16.53;;;2.40;99.90;;;;;;10340774;28;20201;-77
2020/12/05 01:18:09;;;;;;;26.63;16.80;;;2.30;99.90;;;;;;10358823;28;20228;-77
2020/12/05 01:23:30;;;;;;;24.90;16.37;;;2.30;99.90;;;;;;10384870;28;20250;-78
2020/12/05 01:28:53;;;;;;;26.13;17.67;;;2.30;99.90;;;;;;10369489;28;20735;-78
2020/12/05 01:34:14;;;;;;;27.67;17.53;;;2.20;99.90;;;;;;10367273;28;20274;-77
2020/12/05 01:39:36;;;;;;;27.23;17.57;;;2.10;99.90;;;;;;10371033;28;20349;-77
2020/12/05 01:44:59;;;;;;;28.83;17.87;;;2.30;99.90;;;;;;10373583;28;20302;-76
2020/12/05 01:50:20;;;;;;;27.77;17.17;;;2.40;99.90;;;;;;10340176;28;20293;-77
2020/12/05 01:55:43;;;;;;;25.17;16.57;;;2.20;99.90;;;;;;10373838;28;20330;-77
2020/12/05 02:01:09;;;;;;;28.67;18.30;;;2.30;99.90;;;;;;10372941;28;20595;-77
2020/12/05 02:06:47;;;;;;;28.17;17.90;;;2.30;99.90;;;;;;10373670;28;20281;-77
2020/12/05 02:12:18;;;;;;;27.10;17.37;;;2.30;99.90;;;;;;10349526;28;20692;-77
2020/12/05 02:17:46;;;;;;;24.10;16.07;;;2.30;99.90;;;;;;10354544;28;20695;-76
2020/12/05 02:23:12;;;;;;;25.00;17.80;;;2.20;99.90;;;;;;10376807;28;20249;-77
2020/12/05 02:28:34;;;;;;;27.30;17.10;;;2.00;99.90;;;;;;10371648;28;20221;-77
2020/12/05 02:33:56;;;;;;;25.73;16.90;;;2.40;99.90;;;;;;10367930;28;20302;-77
2020/12/05 02:39:20;;;;;;;25.40;16.70;;;2.50;99.90;;;;;;10370114;28;20296;-77
2020/12/05 02:44:46;;;;;;;26.33;17.70;;;2.30;99.90;;;;;;10332712;28;20238;-77
2020/12/05 02:50:07;;;;;;;28.07;17.37;;;2.60;99.90;;;;;;10332168;28;20211;-76
2020/12/05 02:55:30;;;;;;;26.97;16.43;;;2.70;99.90;;;;;;10372554;28;20226;-76
2020/12/05 03:00:51;;;;;;;26.03;16.20;;;2.60;99.90;;;;;;10371686;28;20215;-77
2020/12/05 03:06:13;;;;;;;29.23;17.47;;;2.40;99.90;;;;;;10358586;28;20226;-76
2020/12/05 03:11:35;;;;;;;24.77;16.23;;;2.60;99.90;;;;;;10331225;28;20215;-78
2020/12/05 03:16:57;;;;;;;24.37;15.97;;;2.40;99.90;;;;;;10341809;28;20195;-78
2020/12/05 03:22:19;;;;;;;26.03;15.90;;;2.60;99.90;;;;;;10412439;28;20203;-78
2020/12/05 03:27:41;;;;;;;26.00;17.20;;;2.70;99.90;;;;;;10386308;28;20239;-78
2020/12/05 03:33:03;;;;;;;27.73;17.73;;;2.80;99.90;;;;;;10371360;28;20656;-76
2020/12/05 03:38:25;;;;;;;26.33;16.43;;;2.90;99.90;;;;;;10369977;28;20216;-77
2020/12/05 03:43:47;;;;;;;25.97;17.07;;;2.90;99.90;;;;;;10370089;28;20204;-77
2020/12/05 03:49:09;;;;;;;28.63;17.10;;;2.60;99.90;;;;;;10370592;28;20226;-77
2020/12/05 03:54:30;;;;;;;26.83;18.17;;;3.00;99.90;;;;;;10360431;28;20639;-77
2020/12/05 03:59:53;;;;;;;23.90;15.97;;;3.00;99.90;;;;;;10359169;28;20219;-76
2020/12/05 04:05:14;;;;;;;26.93;17.13;;;2.80;99.90;;;;;;10355933;28;20231;-77
2020/12/05 04:10:36;;;;;;;28.33;17.07;;;2.50;99.90;;;;;;10329226;28;20221;-77
2020/12/05 04:15:59;;;;;;;25.90;16.70;;;2.30;99.90;;;;;;10362205;28;20204;-78
2020/12/05 04:21:20;;;;;;;26.67;17.47;;;2.40;99.90;;;;;;10343537;28;20244;-77
2020/12/05 04:26:42;;;;;;;27.07;17.00;;;2.60;99.90;;;;;;10367659;28;20229;-76
2020/12/05 04:32:04;;;;;;;23.73;15.97;;;2.70;99.90;;;;;;10365916;28;20596;-77
2020/12/05 04:37:26;;;;;;;27.13;17.50;;;2.90;99.90;;;;;;10327615;28;20207;-77
2020/12/05 04:42:49;;;;;;;30.10;17.07;;;3.00;99.90;;;;;;10339120;28;20267;-77
2020/12/05 04:48:12;;;;;;;25.37;16.17;;;2.80;99.90;;;;;;10328554;28;20271;-78
2020/12/05 04:53:36;;;;;;;24.43;15.73;;;2.70;99.90;;;;;;10356523;28;20201;-78
2020/12/05 04:59:03;;;;;;;24.13;16.33;;;2.80;99.90;;;;;;10354194;28;20280;-78
2020/12/05 05:04:27;;;;;;;28.90;17.17;;;2.90;99.90;;;;;;10327332;28;20268;-77
2020/12/05 05:09:52;;;;;;;27.07;16.63;;;3.20;99.90;;;;;;10361137;28;20702;-77
2020/12/05 05:15:28;;;;;;;27.90;17.70;;;3.20;99.90;;;;;;10371566;28;20701;-77
2020/12/05 05:20:51;;;;;;;30.27;18.17;;;3.10;99.90;;;;;;10407015;28;20216;-78
2020/12/05 05:26:12;;;;;;;29.93;17.77;;;2.70;99.90;;;;;;10374596;28;20277;-77
2020/12/05 05:31:49;;;;;;;27.13;17.77;;;2.90;99.90;;;;;;10374912;28;20289;-78
2020/12/05 05:37:14;;;;;;;29.00;18.60;;;3.00;99.90;;;;;;10367609;28;20280;-78
2020/12/05 05:42:38;;;;;;;27.97;17.57;;;3.10;99.90;;;;;;10375062;28;20585;-77
2020/12/05 05:48:02;;;;;;;27.17;17.90;;;2.80;99.90;;;;;;10374383;28;20225;-77
2020/12/05 05:53:24;;;;;;;29.83;18.57;;;2.60;99.90;;;;;;10374077;28;20196;-76
2020/12/05 05:58:46;;;;;;;31.33;19.47;;;2.80;99.90;;;;;;10353371;28;20244;-77
2020/12/05 06:04:21;;;;;;;30.40;18.47;;;3.10;99.90;;;;;;10333587;28;20690;-77
2020/12/05 06:09:48;;;;;;;27.50;18.47;;;3.10;99.90;;;;;;10359061;28;20224;-78
2020/12/05 06:15:11;;;;;;;29.17;18.50;;;3.20;99.90;;;;;;10372638;28;20207;-77
2020/12/05 06:20:36;;;;;;;28.53;17.60;;;2.90;99.90;;;;;;10408196;28;20273;-77
2020/12/05 06:26:01;;;;;;;24.93;16.80;;;2.80;99.90;;;;;;10356226;28;20213;-77
2020/12/05 06:31:39;;;;;;;28.87;18.33;;;2.80;99.90;;;;;;10333666;28;20785;-77
2020/12/05 06:37:00;;;;;;;29.27;18.67;;;2.60;99.90;;;;;;10372780;28;20262;-77
2020/12/05 06:42:23;;;;;;;29.40;18.67;;;2.50;99.90;;;;;;10372885;28;20203;-77
2020/12/05 06:47:44;;;;;;;28.77;18.70;;;2.70;99.90;;;;;;10369511;28;20211;-77
2020/12/05 06:53:29;;;;;;;29.00;17.83;;;2.90;99.90;;;;;;10356732;28;20262;-77
2020/12/05 06:58:57;;;;;;;30.60;18.50;;;2.80;99.90;;;;;;10393393;28;20309;-77
2020/12/05 07:04:22;;;;;;;34.10;19.30;;;2.70;99.90;;;;;;10411600;28;20246;-77
2020/12/05 07:09:46;;;;;;;30.53;18.90;;;2.80;99.90;;;;;;10413207;28;20227;-78
2020/12/05 07:15:21;;;;;;;28.83;17.03;;;2.70;99.90;;;;;;10351459;28;20215;-77
2020/12/05 07:20:43;;;;;;;28.33;18.17;;;2.70;99.90;;;;;;10368814;28;20245;-79
2020/12/05 07:26:05;;;;;;;30.63;17.33;;;2.70;99.90;;;;;;10328724;28;20701;-78
2020/12/05 07:31:30;;;;;;;29.10;18.07;;;2.80;99.90;;;;;;10326990;28;20225;-76
2020/12/05 07:36:51;;;;;;;29.30;17.77;;;2.80;99.90;;;;;;10329015;28;20672;-78
2020/12/05 07:42:13;;;;;;;27.93;18.73;;;2.70;99.90;;;;;;10331339;28;20251;-77
2020/12/05 07:47:36;;;;;;;30.33;18.73;;;2.80;99.90;;;;;;10329940;28;20229;-78
2020/12/05 07:52:57;;;;;;;32.17;20.13;;;3.00;99.90;;;;;;10354947;28;20554;-76
2020/12/05 07:58:19;;;;;;;30.70;19.47;;;3.10;99.90;;;;;;10372955;28;20615;-77
2020/12/05 08:04:17;;;;;;;30.17;18.13;;;3.20;99.90;;;;;;10379989;28;20315;-78
2020/12/05 08:09:39;;;;;;;30.63;19.23;;;3.30;99.90;;;;;;10339549;28;20249;-78
2020/12/05 08:15:01;;;;;;;31.20;19.53;;;3.40;99.90;;;;;;10339254;28;20202;-77
2020/12/05 08:20:24;;;;;;;31.83;18.67;;;3.40;99.90;;;;;;10347818;28;20211;-76
2020/12/05 08:25:48;;;;;;;26.73;18.50;;;3.30;99.90;;;;;;10330838;28;20234;-77
2020/12/05 08:31:11;;;;;;;29.07;18.10;;;3.10;99.90;;;;;;10359345;28;20218;-75
2020/12/05 08:36:36;;;;;;;34.43;18.97;;;3.10;99.90;;;;;;10372572;28;20252;-74
2020/12/05 08:41:58;;;;;;;26.03;17.43;;;3.20;99.90;;;;;;10391279;28;20292;-75
2020/12/05 08:47:20;;;;;;;28.10;17.93;;;3.20;99.90;;;;;;10387790;28;20225;-76
2020/12/05 08:52:44;;;;;;;29.13;17.63;;;3.20;99.90;;;;;;10375471;28;20793;-75
2020/12/05 08:58:07;;;;;;;26.73;16.77;;;3.10;99.90;;;;;;10376720;28;20692;-75
2020/12/05 09:03:28;;;;;;;25.30;16.67;;;3.30;99.90;;;;;;10378764;28;20220;-75
2020/12/05 09:08:51;;;;;;;24.07;16.43;;;3.30;99.90;;;;;;10378961;28;20232;-75
2020/12/05 09:14:12;;;;;;;24.43;16.13;;;3.30;99.90;;;;;;10363171;28;20205;-75
2020/12/05 09:19:34;;;;;;;23.97;15.63;;;3.50;99.90;;;;;;10404117;28;20279;-75
2020/12/05 09:24:56;;;;;;;27.30;17.00;;;3.50;99.90;;;;;;10415791;28;20217;-75
2020/12/05 09:30:19;;;;;;;26.63;16.83;;;3.60;99.90;;;;;;10335665;28;20215;-77
2020/12/05 09:35:40;;;;;;;25.07;16.23;;;3.60;99.90;;;;;;10356167;28;20201;-77
2020/12/05 09:41:03;;;;;;;25.23;16.97;;;3.90;99.90;;;;;;10372825;28;21048;-77
2020/12/05 09:46:24;;;;;;;28.33;18.00;;;4.30;99.90;;;;;;10372559;28;20706;-75
2020/12/05 09:51:46;;;;;;;23.67;16.37;;;4.40;99.90;;;;;;10368286;28;20240;-76
2020/12/05 09:57:09;;;;;;;24.23;16.10;;;4.50;99.90;;;;;;10369326;28;20664;-76
2020/12/05 10:02:31;;;;;;;27.77;17.10;;;4.30;99.90;;;;;;10369833;28;20202;-75
2020/12/05 10:07:52;;;;;;;27.67;18.00;;;4.40;99.90;;;;;;10369386;28;20226;-76
2020/12/05 10:13:15;;;;;;;30.47;19.07;;;4.30;99.90;;;;;;10349220;28;20220;-76
2020/12/05 10:18:36;;;;;;;25.07;16.40;;;4.20;99.90;;;;;;10331846;28;20699;-77
2020/12/05 10:23:58;;;;;;;26.27;16.27;;;4.10;99.90;;;;;;10331217;28;20369;-78
2020/12/05 10:29:21;;;;;;;21.57;15.53;;;3.90;99.90;;;;;;10331352;28;20222;-78
2020/12/05 10:34:42;;;;;;;23.17;16.90;;;3.60;99.90;;;;;;10331074;28;20195;-77
2020/12/05 10:40:04;;;;;;;27.20;19.13;;;3.50;99.90;;;;;;10367266;28;20246;-77
2020/12/05 10:45:26;;;;;;;24.53;16.07;;;3.50;99.90;;;;;;10335441;28;20223;-77
2020/12/05 10:50:48;;;;;;;22.83;15.77;;;3.70;99.90;;;;;;10338121;28;20248;-77
2020/12/05 10:56:09;;;;;;;26.07;16.13;;;3.90;99.90;;;;;;10371310;28;20264;-77
2020/12/05 11:01:32;;;;;;;21.73;15.20;;;4.00;99.90;;;;;;10360335;28;20203;-77
2020/12/05 11:06:55;;;;;;;22.77;15.37;;;4.20;99.90;;;;;;10349132;28;20365;-77
2020/12/05 11:12:17;;;;;;;23.07;14.87;;;4.60;99.90;;;;;;10353456;28;20202;-77
2020/12/05 11:17:39;;;;;;;24.67;15.40;;;4.80;99.90;;;;;;10351485;28;20215;-78
2020/12/05 11:23:00;;;;;;;27.67;20.13;;;5.00;99.90;;;;;;10357394;28;20206;-77
2020/12/05 11:28:22;;;;;;;30.40;18.70;;;5.10;99.90;;;;;;10354909;28;20225;-78
2020/12/05 11:33:45;;;;;;;20.47;14.47;;;5.30;99.90;;;;;;10349068;28;20187;-77
2020/12/05 11:39:06;;;;;;;19.33;13.67;;;5.30;99.90;;;;;;10349560;28;20684;-78
2020/12/05 11:44:28;;;;;;;18.87;13.10;;;5.30;99.90;;;;;;10350188;28;20214;-76
2020/12/05 11:49:50;;;;;;;18.30;12.40;;;5.50;99.90;;;;;;10351072;28;20742;-77
2020/12/05 11:55:12;;;;;;;24.33;15.93;;;5.70;99.90;;;;;;10347945;28;20194;-77
2020/12/05 12:00:33;;;;;;;22.57;14.40;;;5.60;99.90;;;;;;10355641;28;20214;-77
2020/12/05 12:05:56;;;;;;;20.07;13.40;;;5.80;99.90;;;;;;10350186;28;20303;-76
2020/12/05 12:11:20;;;;;;;20.70;13.33;;;5.90;99.90;;;;;;10347045;28;20219;-79
2020/12/05 12:16:41;;;;;;;17.67;12.73;;;5.70;99.90;;;;;;10351757;28;20707;-76
2020/12/05 12:22:05;;;;;;;16.33;12.23;;;5.60;99.90;;;;;;10363024;28;20681;-76
2020/12/05 12:27:27;;;;;;;17.77;12.43;;;5.70;99.90;;;;;;10347049;28;20255;-76
2020/12/05 12:32:49;;;;;;;19.50;13.07;;;6.00;99.90;;;;;;10351241;28;20201;-76
2020/12/05 12:38:11;;;;;;;19.70;12.67;;;6.00;99.90;;;;;;10349545;28;20605;-76
2020/12/05 12:43:33;;;;;;;22.20;14.87;;;6.10;99.90;;;;;;10347153;28;20734;-76
2020/12/05 12:48:55;;;;;;;19.40;13.60;;;5.90;99.90;;;;;;10349568;28;20210;-77
2020/12/05 12:54:17;;;;;;;23.13;14.20;;;6.10;99.90;;;;;;10347024;28;20482;-78
2020/12/05 12:59:39;;;;;;;18.40;13.80;;;6.20;99.90;;;;;;10353172;28;20210;-78
2020/12/05 13:05:00;;;;;;;18.63;13.43;;;6.20;99.90;;;;;;10345061;28;20218;-79
2020/12/05 13:10:23;;;;;;;18.07;13.07;;;6.10;99.90;;;;;;10344802;28;20207;-79
2020/12/05 13:15:44;;;;;;;17.87;12.57;;;6.00;99.90;;;;;;10331939;28;20238;-79
2020/12/05 13:21:06;;;;;;;18.20;12.17;;;6.00;99.90;;;;;;10415023;28;20217;-78
2020/12/05 13:26:29;;;;;;;15.03;11.77;;;6.10;99.90;;;;;;10410132;28;20221;-78
2020/12/05 13:31:50;;;;;;;18.63;13.83;;;6.20;99.90;;;;;;10410671;28;20205;-78
2020/12/05 13:37:12;;;;;;;13.80;10.60;;;6.20;99.90;;;;;;10413350;28;20682;-78
2020/12/05 13:42:35;;;;;;;16.60;12.27;;;6.30;99.90;;;;;;10400005;28;20198;-79
2020/12/05 13:47:56;;;;;;;14.80;10.47;;;6.20;99.90;;;;;;10376437;28;20218;-78
2020/12/05 13:53:18;;;;;;;14.30;10.67;;;6.30;99.90;;;;;;10372484;28;20568;-78
2020/12/05 13:58:40;;;;;;;15.33;11.10;;;6.20;99.90;;;;;;10384452;28;20642;-80
2020/12/05 14:04:02;;;;;;;14.87;10.57;;;6.10;99.90;;;;;;10385449;28;20277;-80
2020/12/05 14:09:25;;;;;;;21.27;15.50;;;6.00;99.90;;;;;;10384090;28;20265;-78
2020/12/05 14:14:47;;;;;;;12.53;9.80;;;6.00;99.90;;;;;;10372190;28;20202;-78
2020/12/05 14:20:09;;;;;;;12.87;9.17;;;5.90;99.90;;;;;;10409394;28;20292;-82
2020/12/05 14:25:31;;;;;;;14.23;10.27;;;5.80;99.90;;;;;;10418628;28;20233;-80
2020/12/05 14:30:56;;;;;;;12.33;9.67;;;5.70;99.90;;;;;;10390462;28;20239;-81
2020/12/05 14:36:19;;;;;;;14.23;10.20;;;5.60;99.90;;;;;;10402772;28;20280;-79
2020/12/05 14:41:42;;;;;;;12.87;9.37;;;5.50;99.90;;;;;;10392439;28;20227;-83
2020/12/05 14:47:04;;;;;;;11.77;8.83;;;5.50;99.90;;;;;;10335945;28;20226;-82
2020/12/05 14:52:27;;;;;;;11.77;9.57;;;5.40;99.90;;;;;;10380760;28;20692;-83
2020/12/05 14:57:49;;;;;;;14.00;9.73;;;5.40;99.90;;;;;;10382458;28;20214;-83
2020/12/05 15:03:12;;;;;;;11.57;8.47;;;5.30;99.90;;;;;;10384003;28;20209;-84
2020/12/05 15:08:33;;;;;;;10.23;8.60;;;5.20;99.90;;;;;;10382584;28;20251;-83
2020/12/05 15:13:56;;;;;;;11.93;7.53;;;5.20;99.90;;;;;;10354815;28;20199;-83
2020/12/05 15:19:18;;;;;;;11.87;9.20;;;5.20;99.90;;;;;;10397990;28;20233;-83
2020/12/05 15:24:40;;;;;;;11.27;8.70;;;5.00;99.90;;;;;;10422635;28;20214;-83
2020/12/05 15:30:02;;;;;;;12.03;8.20;;;5.00;99.90;;;;;;10423112;28;20222;-83
2020/12/05 15:35:25;;;;;;;16.30;10.23;;;5.00;99.90;;;;;;10423819;28;20221;-83
2020/12/05 15:40:46;;;;;;;22.37;13.00;;;4.90;99.90;;;;;;10412246;28;20214;-83
2020/12/05 15:46:08;;;;;;;23.63;14.87;;;4.90;99.90;;;;;;10381720;28;20218;-83
2020/12/05 15:51:31;;;;;;;15.10;10.20;;;4.90;99.90;;;;;;10383304;28;20226;-83
2020/12/05 15:56:52;;;;;;;11.60;7.90;;;4.70;99.90;;;;;;10385600;28;20202;-82
2020/12/05 16:02:14;;;;;;;11.17;8.07;;;4.60;99.90;;;;;;10382333;28;20821;-82
2020/12/05 16:07:36;;;;;;;13.13;8.83;;;4.60;99.90;;;;;;10379113;28;20261;-83
2020/12/05 16:12:58;;;;;;;12.87;8.83;;;4.60;99.90;;;;;;10392619;28;20194;-84
2020/12/05 16:18:20;;;;;;;12.57;8.97;;;4.50;99.90;;;;;;10411787;28;20699;-84
2020/12/05 16:23:42;;;;;;;14.17;8.47;;;4.40;99.90;;;;;;10371340;28;20210;-82
2020/12/05 16:29:04;;;;;;;13.40;9.93;;;4.40;99.90;;;;;;10381295;28;20219;-84
2020/12/05 16:34:27;;;;;;;18.53;12.63;;;4.30;99.90;;;;;;10383332;28;20197;-82
2020/12/05 17:30:26;;;;;;;11.87;9.17;;;4.10;99.90;;;;;;10323357;28;20651;-81
2020/12/05 17:35:48;;;;;;;14.17;9.47;;;4.10;99.90;;;;;;10337931;28;20538;-84
2020/12/05 17:41:10;;;;;;;19.53;12.03;;;4.10;99.90;;;;;;10351128;28;20211;-83
2020/12/05 17:46:33;;;;;;;23.47;16.47;;;4.10;99.90;;;;;;10385843;28;20557;-83
2020/12/05 17:51:55;;;;;;;14.13;11.40;;;4.00;99.90;;;;;;10351883;28;20195;-82
2020/12/05 17:57:17;;;;;;;12.33;8.77;;;4.00;99.90;;;;;;10366002;28;20222;-83
2020/12/05 18:02:39;;;;;;;14.03;10.17;;;4.00;99.90;;;;;;10372940;28;20196;-84
2020/12/05 18:08:01;;;;;;;13.03;9.37;;;4.00;99.90;;;;;;10349333;28;20233;-82
2020/12/05 18:13:23;;;;;;;16.40;11.03;;;4.00;99.90;;;;;;10347965;28;20649;-83
2020/12/05 18:18:45;;;;;;;12.20;8.83;;;4.10;99.90;;;;;;10349428;28;20229;-80
2020/12/05 18:24:08;;;;;;;12.73;9.43;;;4.20;99.90;;;;;;10353934;28;20658;-85
2020/12/05 18:29:31;;;;;;;13.10;8.73;;;4.20;99.90;;;;;;10350066;28;20231;-85
2020/12/05 18:34:53;;;;;;;14.07;8.93;;;4.10;99.90;;;;;;10309439;28;20202;-85
2020/12/05 18:40:15;;;;;;;13.33;9.97;;;4.20;99.90;;;;;;10378204;28;20218;-85
2020/12/05 18:45:36;;;;;;;18.47;13.70;;;4.20;99.90;;;;;;10382286;28;20500;-84
2020/12/05 18:50:59;;;;;;;22.37;16.23;;;4.10;99.90;;;;;;10380533;28;20627;-84
2020/12/05 18:56:20;;;;;;;19.77;15.27;;;4.10;99.90;;;;;;10379801;28;20194;-84
2020/12/05 19:01:43;;;;;;;24.27;17.37;;;4.00;99.90;;;;;;10379805;28;20226;-84
2020/12/05 19:07:05;;;;;;;22.30;15.27;;;4.20;99.90;;;;;;10378379;28;20227;-82
2020/12/05 19:12:27;;;;;;;21.70;14.23;;;4.10;99.90;;;;;;10363584;28;20195;-80
2020/12/05 19:17:50;;;;;;;25.37;15.73;;;4.10;99.90;;;;;;10359546;28;20585;-84
2020/12/05 19:23:13;;;;;;;16.70;12.00;;;4.00;99.90;;;;;;10355027;28;20215;-83
2020/12/05 19:28:35;;;;;;;18.63;12.83;;;3.80;99.90;;;;;;10348936;28;20229;-81
2020/12/05 19:33:56;;;;;;;16.30;10.50;;;3.60;99.90;;;;;;10356210;28;20194;-83
2020/12/05 19:39:19;;;;;;;14.33;11.03;;;3.50;99.90;;;;;;10354116;28;20530;-82
2020/12/05 19:44:40;;;;;;;40.47;23.43;;;3.50;99.90;;;;;;10355739;28;20295;-81
2020/12/05 19:50:04;;;;;;;57.03;30.70;;;3.50;99.90;;;;;;10371102;28;20222;-82
2020/12/05 19:55:27;;;;;;;22.47;12.87;;;3.60;99.90;;;;;;10364942;28;20642;-83
2020/12/05 20:00:49;;;;;;;13.77;10.57;;;3.70;99.90;;;;;;10358851;23;20254;-87
2020/12/05 20:06:10;;;;;;;12.30;9.63;;;3.60;99.90;;;;;;10260148;28;20223;-87
2020/12/05 20:11:33;;;;;;;13.00;9.70;;;3.70;99.90;;;;;;10252601;28;20203;-88
2020/12/05 20:17:00;;;;;;;12.60;9.47;;;3.80;99.90;;;;;;10256928;28;20210;-88
2020/12/05 20:22:22;;;;;;;13.00;9.70;;;3.60;99.90;;;;;;10293661;28;20570;-87
2020/12/05 20:27:48;;;;;;;13.83;9.50;;;3.80;99.90;;;;;;10293354;28;20589;-87
2020/12/05 20:33:09;;;;;;;12.97;9.70;;;3.70;99.90;;;;;;10278769;28;20197;-84
2020/12/05 20:38:31;;;;;;;11.27;8.73;;;3.70;99.90;;;;;;10276900;28;20637;-84
2020/12/05 20:43:54;;;;;;;12.93;9.37;;;3.80;99.90;;;;;;10259906;28;20213;-88
2020/12/05 20:49:15;;;;;;;13.53;9.20;;;3.70;99.90;;;;;;10256658;28;20196;-87
2020/12/05 20:54:37;;;;;;;13.63;10.10;;;3.60;99.90;;;;;;10261494;29;20221;-87
2020/12/05 20:59:59;;;;;;;13.83;10.77;;;3.80;99.90;;;;;;10255385;28;20204;-87
2020/12/05 21:05:22;;;;;;;14.57;10.13;;;3.90;99.90;;;;;;10256109;28;20224;-88
2020/12/05 21:10:43;;;;;;;15.40;11.20;;;3.70;99.90;;;;;;10254802;29;20552;-87
2020/12/05 21:16:06;;;;;;;15.17;10.27;;;4.00;99.90;;;;;;10258887;28;20219;-87
2020/12/05 21:21:28;;;;;;;13.07;9.80;;;4.00;99.90;;;;;;10255388;29;20197;-87
2020/12/05 21:26:49;;;;;;;12.93;10.00;;;4.00;99.90;;;;;;10318406;23;20218;-82
2020/12/05 21:32:12;;;;;;;13.40;9.77;;;3.70;99.90;;;;;;10353488;28;20195;-82
2020/12/05 21:37:34;;;;;;;12.10;9.53;;;4.00;99.90;;;;;;10326263;23;20798;-87
2020/12/05 21:42:55;;;;;;;13.47;9.87;;;4.10;99.90;;;;;;10278237;28;20192;-87
2020/12/05 21:48:18;;;;;;;15.00;10.43;;;4.20;99.90;;;;;;10288641;28;20232;-88
2020/12/05 21:53:39;;;;;;;13.20;9.40;;;4.10;99.90;;;;;;10293660;28;20195;-85
2020/12/05 21:59:01;;;;;;;14.77;10.40;;;4.10;99.90;;;;;;10273563;28;20213;-87
2020/12/05 22:04:24;;;;;;;14.60;9.50;;;4.10;99.90;;;;;;10276732;28;20209;-87
2020/12/05 22:09:45;;;;;;;14.57;11.00;;;3.90;99.90;;;;;;10291669;28;20721;-87
2020/12/05 22:15:07;;;;;;;15.30;11.73;;;3.90;99.90;;;;;;10305311;28;20286;-86
2020/12/05 22:20:29;;;;;;;17.50;11.67;;;4.10;99.90;;;;;;10304631;28;20561;-87
2020/12/05 22:25:51;;;;;;;15.83;10.60;;;4.10;99.90;;;;;;10297996;28;20246;-88
2020/12/05 22:31:12;;;;;;;16.37;10.30;;;4.00;99.90;;;;;;10335745;28;20204;-84
2020/12/05 22:36:35;;;;;;;19.80;11.93;;;3.80;99.90;;;;;;10332654;28;20231;-87
2020/12/05 22:41:56;;;;;;;13.07;9.63;;;3.70;99.90;;;;;;10320480;28;20192;-87
2020/12/05 22:47:18;;;;;;;12.93;9.40;;;3.80;99.90;;;;;;10325299;28;20255;-83
2020/12/05 22:52:40;;;;;;;15.07;9.20;;;3.70;99.90;;;;;;10312214;28;20219;-87
2020/12/05 22:58:02;;;;;;;13.87;9.93;;;3.80;99.90;;;;;;10294253;28;20226;-86
2020/12/05 23:03:24;;;;;;;12.80;9.47;;;3.80;99.90;;;;;;10306880;28;20669;-87
2020/12/05 23:08:47;;;;;;;13.10;9.87;;;3.80;99.90;;;;;;10289975;28;20251;-87
2020/12/05 23:14:11;;;;;;;17.07;11.70;;;3.90;99.90;;;;;;10304513;28;20610;-87
2020/12/05 23:19:32;;;;;;;14.37;10.13;;;4.10;99.90;;;;;;10300795;28;20723;-86
2020/12/05 23:24:55;;;;;;;14.90;10.10;;;4.20;99.90;;;;;;10295408;28;20700;-85
2020/12/05 23:30:24;;;;;;;15.33;10.17;;;4.20;99.90;;;;;;10295834;28;20270;-85
2020/12/05 23:35:46;;;;;;;17.03;10.43;;;4.00;99.90;;;;;;10269840;28;20261;-87
2020/12/05 23:41:15;;;;;;;13.00;9.47;;;3.90;99.90;;;;;;10278241;28;20276;-87
2020/12/05 23:46:37;;;;;;;15.07;9.97;;;3.90;99.90;;;;;;10295595;28;20691;-86
2020/12/05 23:52:01;;;;;;;14.50;10.20;;;3.80;99.90;;;;;;10295540;28;20192;-88
2020/12/05 23:57:23;;;;;;;14.23;10.10;;;4.10;99.90;;;;;;10302935;28;20689;-86
